sensor_id;sensor_type;location;lat;lon;timestamp;P1;durP1;ratioP1;P2;durP2;ratioP2
36391;SDS011;22639;42.690;23.356;2023-04-01T00:00:46;15.10;;;9.13;;
36391;SDS011;22639;42.690;23.356;2023-04-01T00:03:11;15.20;;;9.23;;
36391;SDS011;22639;42.690;23.356;2023-04-01T00:05:36;10.97;;;8.30;;
36391;SDS011;22639;42.690;23.356;2023-04-01T00:08:02;9.63;;;7.83;;
36391;SDS011;22639;42.690;23.356;2023-04-01T00:10:27;14.10;;;7.40;;
36391;SDS011;22639;42.690;23.356;2023-04-01T00:12:52;9.77;;;6.57;;
36391;SDS011;22639;42.690;23.356;2023-04-01T00:15:18;10.17;;;7.40;;
36391;SDS011;22639;42.690;23.356;2023-04-01T00:17:43;9.23;;;6.73;;
36391;SDS011;22639;42.690;23.356;2023-04-01T00:20:08;11.47;;;7.37;;
36391;SDS011;22639;42.690;23.356;2023-04-01T00:22:34;8.00;;;7.20;;
36391;SDS011;22639;42.690;23.356;2023-04-01T00:24:59;8.60;;;6.20;;
36391;SDS011;22639;42.690;23.356;2023-04-01T00:27:25;7.70;;;5.63;;
36391;SDS011;22639;42.690;23.356;2023-04-01T00:29:51;10.80;;;5.97;;
36391;SDS011;22639;42.690;23.356;2023-04-01T00:32:16;9.43;;;5.67;;
36391;SDS011;22639;42.690;23.356;2023-04-01T00:34:41;7.53;;;5.93;;
36391;SDS011;22639;42.690;23.356;2023-04-01T00:37:07;11.20;;;6.43;;
36391;SDS011;22639;42.690;23.356;2023-04-01T00:39:32;13.97;;;6.47;;
36391;SDS011;22639;42.690;23.356;2023-04-01T00:41:58;9.03;;;6.07;;
36391;SDS011;22639;42.690;23.356;2023-04-01T00:44:24;15.60;;;6.47;;
36391;SDS011;22639;42.690;23.356;2023-04-01T00:46:50;8.70;;;5.93;;
36391;SDS011;22639;42.690;23.356;2023-04-01T00:49:17;8.80;;;6.03;;
36391;SDS011;22639;42.690;23.356;2023-04-01T00:51:44;6.77;;;5.13;;
36391;SDS011;22639;42.690;23.356;2023-04-01T00:54:11;7.63;;;5.27;;
36391;SDS011;22639;42.690;23.356;2023-04-01T00:56:37;9.90;;;6.37;;
36391;SDS011;22639;42.690;23.356;2023-04-01T00:59:12;9.17;;;5.07;;
36391;SDS011;22639;42.690;23.356;2023-04-01T01:01:39;7.27;;;4.97;;
36391;SDS011;22639;42.690;23.356;2023-04-01T01:04:05;7.40;;;5.67;;
36391;SDS011;22639;42.690;23.356;2023-04-01T01:11:35;10.27;;;6.07;;
36391;SDS011;22639;42.690;23.356;2023-04-01T01:14:05;6.17;;;5.43;;
36391;SDS011;22639;42.690;23.356;2023-04-01T01:16:36;9.93;;;6.20;;
36391;SDS011;22639;42.690;23.356;2023-04-01T01:24:22;9.27;;;4.93;;
36391;SDS011;22639;42.690;23.356;2023-04-01T01:27:02;6.07;;;3.80;;
36391;SDS011;22639;42.690;23.356;2023-04-01T01:37:36;5.97;;;4.57;;
36391;SDS011;22639;42.690;23.356;2023-04-01T01:40:04;7.77;;;5.10;;
36391;SDS011;22639;42.690;23.356;2023-04-01T01:42:30;5.13;;;3.40;;
36391;SDS011;22639;42.690;23.356;2023-04-01T01:44:56;6.30;;;3.77;;
36391;SDS011;22639;42.690;23.356;2023-04-01T01:47:24;4.10;;;3.33;;
36391;SDS011;22639;42.690;23.356;2023-04-01T01:49:50;6.10;;;4.63;;
36391;SDS011;22639;42.690;23.356;2023-04-01T01:52:16;5.67;;;4.33;;
36391;SDS011;22639;42.690;23.356;2023-04-01T01:54:52;4.47;;;3.10;;
36391;SDS011;22639;42.690;23.356;2023-04-01T01:57:19;3.53;;;3.03;;
36391;SDS011;22639;42.690;23.356;2023-04-01T01:59:44;4.33;;;2.70;;
36391;SDS011;22639;42.690;23.356;2023-04-01T02:02:10;3.83;;;3.40;;
36391;SDS011;22639;42.690;23.356;2023-04-01T02:04:37;6.07;;;2.40;;
36391;SDS011;22639;42.690;23.356;2023-04-01T02:07:04;6.90;;;3.17;;
36391;SDS011;22639;42.690;23.356;2023-04-01T02:09:31;4.80;;;3.37;;
36391;SDS011;22639;42.690;23.356;2023-04-01T02:11:59;4.70;;;4.27;;
36391;SDS011;22639;42.690;23.356;2023-04-01T02:14:26;4.10;;;3.60;;
36391;SDS011;22639;42.690;23.356;2023-04-01T02:17:03;5.37;;;3.33;;
36391;SDS011;22639;42.690;23.356;2023-04-01T02:19:38;5.90;;;3.60;;
36391;SDS011;22639;42.690;23.356;2023-04-01T02:22:04;5.60;;;3.77;;
36391;SDS011;22639;42.690;23.356;2023-04-01T02:24:33;5.83;;;4.30;;
36391;SDS011;22639;42.690;23.356;2023-04-01T02:27:00;5.13;;;2.80;;
36391;SDS011;22639;42.690;23.356;2023-04-01T02:29:26;6.20;;;4.07;;
36391;SDS011;22639;42.690;23.356;2023-04-01T02:31:52;3.33;;;3.03;;
36391;SDS011;22639;42.690;23.356;2023-04-01T02:34:18;9.07;;;4.37;;
36391;SDS011;22639;42.690;23.356;2023-04-01T02:36:43;8.23;;;5.00;;
36391;SDS011;22639;42.690;23.356;2023-04-01T02:39:09;4.80;;;4.30;;
36391;SDS011;22639;42.690;23.356;2023-04-01T02:41:41;8.30;;;5.50;;
36391;SDS011;22639;42.690;23.356;2023-04-01T02:44:06;6.63;;;4.90;;
36391;SDS011;22639;42.690;23.356;2023-04-01T02:46:32;7.00;;;4.43;;
36391;SDS011;22639;42.690;23.356;2023-04-01T02:48:57;6.43;;;4.00;;
36391;SDS011;22639;42.690;23.356;2023-04-01T02:51:22;7.83;;;4.27;;
36391;SDS011;22639;42.690;23.356;2023-04-01T02:53:48;6.33;;;4.37;;
36391;SDS011;22639;42.690;23.356;2023-04-01T02:56:13;9.67;;;6.23;;
36391;SDS011;22639;42.690;23.356;2023-04-01T02:58:38;8.30;;;5.90;;
36391;SDS011;22639;42.690;23.356;2023-04-01T03:01:03;7.50;;;5.83;;
36391;SDS011;22639;42.690;23.356;2023-04-01T03:03:29;8.20;;;5.40;;
36391;SDS011;22639;42.690;23.356;2023-04-01T03:05:54;8.17;;;4.60;;
36391;SDS011;22639;42.690;23.356;2023-04-01T03:08:21;8.37;;;5.67;;
36391;SDS011;22639;42.690;23.356;2023-04-01T03:10:47;10.17;;;5.73;;
36391;SDS011;22639;42.690;23.356;2023-04-01T03:13:16;10.03;;;5.63;;
36391;SDS011;22639;42.690;23.356;2023-04-01T03:15:41;6.60;;;5.17;;
36391;SDS011;22639;42.690;23.356;2023-04-01T03:18:10;6.90;;;5.10;;
36391;SDS011;22639;42.690;23.356;2023-04-01T03:20:35;7.20;;;5.00;;
36391;SDS011;22639;42.690;23.356;2023-04-01T03:23:01;6.93;;;5.43;;
36391;SDS011;22639;42.690;23.356;2023-04-01T03:25:26;8.70;;;4.93;;
36391;SDS011;22639;42.690;23.356;2023-04-01T03:27:53;10.43;;;4.97;;
36391;SDS011;22639;42.690;23.356;2023-04-01T03:30:19;10.30;;;6.17;;
36391;SDS011;22639;42.690;23.356;2023-04-01T03:32:44;9.43;;;7.00;;
36391;SDS011;22639;42.690;23.356;2023-04-01T03:35:10;9.30;;;5.57;;
36391;SDS011;22639;42.690;23.356;2023-04-01T03:37:36;10.23;;;6.37;;
36391;SDS011;22639;42.690;23.356;2023-04-01T03:40:01;7.07;;;5.27;;
36391;SDS011;22639;42.690;23.356;2023-04-01T03:42:26;7.30;;;6.13;;
36391;SDS011;22639;42.690;23.356;2023-04-01T03:44:54;8.50;;;6.30;;
36391;SDS011;22639;42.690;23.356;2023-04-01T03:47:19;7.77;;;6.13;;
36391;SDS011;22639;42.690;23.356;2023-04-01T03:49:48;7.17;;;5.97;;
36391;SDS011;22639;42.690;23.356;2023-04-01T03:52:16;6.90;;;4.83;;
36391;SDS011;22639;42.690;23.356;2023-04-01T03:54:41;7.07;;;5.10;;
36391;SDS011;22639;42.690;23.356;2023-04-01T03:57:10;10.97;;;7.57;;
36391;SDS011;22639;42.690;23.356;2023-04-01T03:59:36;11.23;;;6.53;;
36391;SDS011;22639;42.690;23.356;2023-04-01T04:02:02;8.83;;;6.53;;
36391;SDS011;22639;42.690;23.356;2023-04-01T04:04:27;7.83;;;5.27;;
36391;SDS011;22639;42.690;23.356;2023-04-01T04:06:53;7.67;;;5.53;;
36391;SDS011;22639;42.690;23.356;2023-04-01T04:09:34;8.00;;;5.70;;
36391;SDS011;22639;42.690;23.356;2023-04-01T04:12:00;5.67;;;4.23;;
36391;SDS011;22639;42.690;23.356;2023-04-01T04:14:27;7.70;;;6.37;;
36391;SDS011;22639;42.690;23.356;2023-04-01T04:16:57;11.80;;;5.47;;
36391;SDS011;22639;42.690;23.356;2023-04-01T04:19:22;10.93;;;6.43;;
36391;SDS011;22639;42.690;23.356;2023-04-01T04:21:51;7.10;;;5.70;;
36391;SDS011;22639;42.690;23.356;2023-04-01T04:24:25;6.53;;;5.93;;
36391;SDS011;22639;42.690;23.356;2023-04-01T04:26:52;8.43;;;6.17;;
36391;SDS011;22639;42.690;23.356;2023-04-01T04:29:18;9.83;;;6.93;;
36391;SDS011;22639;42.690;23.356;2023-04-01T04:31:44;9.10;;;6.53;;
36391;SDS011;22639;42.690;23.356;2023-04-01T04:34:09;8.60;;;6.17;;
36391;SDS011;22639;42.690;23.356;2023-04-01T04:36:35;9.33;;;6.13;;
36391;SDS011;22639;42.690;23.356;2023-04-01T04:39:01;11.27;;;6.33;;
36391;SDS011;22639;42.690;23.356;2023-04-01T04:41:28;9.80;;;7.20;;
36391;SDS011;22639;42.690;23.356;2023-04-01T04:44:14;9.10;;;5.00;;
36391;SDS011;22639;42.690;23.356;2023-04-01T04:46:40;6.53;;;5.00;;
36391;SDS011;22639;42.690;23.356;2023-04-01T04:49:06;9.57;;;4.83;;
36391;SDS011;22639;42.690;23.356;2023-04-01T04:51:31;6.43;;;4.47;;
36391;SDS011;22639;42.690;23.356;2023-04-01T04:54:01;3.97;;;3.30;;
36391;SDS011;22639;42.690;23.356;2023-04-01T04:56:28;5.50;;;3.43;;
36391;SDS011;22639;42.690;23.356;2023-04-01T04:58:54;6.90;;;3.90;;
36391;SDS011;22639;42.690;23.356;2023-04-01T05:01:19;4.77;;;3.60;;
36391;SDS011;22639;42.690;23.356;2023-04-01T05:03:45;8.13;;;4.50;;
36391;SDS011;22639;42.690;23.356;2023-04-01T05:06:11;5.77;;;3.83;;
36391;SDS011;22639;42.690;23.356;2023-04-01T05:08:37;6.97;;;3.43;;
36391;SDS011;22639;42.690;23.356;2023-04-01T05:11:06;5.93;;;4.17;;
36391;SDS011;22639;42.690;23.356;2023-04-01T05:13:31;6.97;;;4.43;;
36391;SDS011;22639;42.690;23.356;2023-04-01T05:15:57;4.87;;;4.37;;
36391;SDS011;22639;42.690;23.356;2023-04-01T05:18:22;7.27;;;5.00;;
36391;SDS011;22639;42.690;23.356;2023-04-01T05:20:51;6.07;;;4.10;;
36391;SDS011;22639;42.690;23.356;2023-04-01T05:23:16;7.10;;;4.03;;
36391;SDS011;22639;42.690;23.356;2023-04-01T05:25:42;4.43;;;3.50;;
36391;SDS011;22639;42.690;23.356;2023-04-01T05:28:10;4.50;;;3.37;;
36391;SDS011;22639;42.690;23.356;2023-04-01T05:30:35;4.17;;;3.50;;
36391;SDS011;22639;42.690;23.356;2023-04-01T05:33:00;4.67;;;3.70;;
36391;SDS011;22639;42.690;23.356;2023-04-01T05:35:25;6.00;;;3.53;;
36391;SDS011;22639;42.690;23.356;2023-04-01T05:37:51;4.23;;;3.47;;
36391;SDS011;22639;42.690;23.356;2023-04-01T05:40:16;4.77;;;3.20;;
36391;SDS011;22639;42.690;23.356;2023-04-01T05:42:41;5.90;;;3.60;;
36391;SDS011;22639;42.690;23.356;2023-04-01T05:45:06;5.33;;;3.47;;
36391;SDS011;22639;42.690;23.356;2023-04-01T05:47:32;6.40;;;4.50;;
36391;SDS011;22639;42.690;23.356;2023-04-01T05:49:58;7.80;;;4.20;;
36391;SDS011;22639;42.690;23.356;2023-04-01T05:52:24;3.97;;;3.58;;
36391;SDS011;22639;42.690;23.356;2023-04-01T05:54:49;6.82;;;4.18;;
36391;SDS011;22639;42.690;23.356;2023-04-01T05:57:15;5.30;;;3.65;;
36391;SDS011;22639;42.690;23.356;2023-04-01T05:59:40;7.07;;;3.42;;
36391;SDS011;22639;42.690;23.356;2023-04-01T06:02:05;6.57;;;4.45;;
36391;SDS011;22639;42.690;23.356;2023-04-01T06:04:34;6.78;;;3.92;;
36391;SDS011;22639;42.690;23.356;2023-04-01T06:07:05;4.38;;;3.88;;
36391;SDS011;22639;42.690;23.356;2023-04-01T06:09:30;4.53;;;3.28;;
36391;SDS011;22639;42.690;23.356;2023-04-01T06:19:50;7.93;;;4.32;;
36391;SDS011;22639;42.690;23.356;2023-04-01T06:22:22;5.80;;;3.78;;
36391;SDS011;22639;42.690;23.356;2023-04-01T06:38:39;6.22;;;3.95;;
36391;SDS011;22639;42.690;23.356;2023-04-01T06:49:07;4.55;;;3.30;;
36391;SDS011;22639;42.690;23.356;2023-04-01T06:56:36;6.88;;;4.28;;
36391;SDS011;22639;42.690;23.356;2023-04-01T06:59:05;4.75;;;4.18;;
36391;SDS011;22639;42.690;23.356;2023-04-01T07:04:01;7.65;;;3.90;;
36391;SDS011;22639;42.690;23.356;2023-04-01T07:08:58;6.40;;;3.83;;
36391;SDS011;22639;42.690;23.356;2023-04-01T07:11:29;6.38;;;5.28;;
36391;SDS011;22639;42.690;23.356;2023-04-01T07:13:59;5.82;;;4.65;;
36391;SDS011;22639;42.690;23.356;2023-04-01T07:16:34;7.88;;;4.78;;
36391;SDS011;22639;42.690;23.356;2023-04-01T07:19:06;7.15;;;4.72;;
36391;SDS011;22639;42.690;23.356;2023-04-01T07:21:48;14.73;;;5.95;;
36391;SDS011;22639;42.690;23.356;2023-04-01T07:24:16;6.78;;;5.13;;
36391;SDS011;22639;42.690;23.356;2023-04-01T07:26:42;4.07;;;3.67;;
36391;SDS011;22639;42.690;23.356;2023-04-01T07:29:11;10.45;;;4.57;;
36391;SDS011;22639;42.690;23.356;2023-04-01T07:36:52;7.30;;;3.97;;
36391;SDS011;22639;42.690;23.356;2023-04-01T07:41:52;6.28;;;3.97;;
36391;SDS011;22639;42.690;23.356;2023-04-01T07:44:27;6.93;;;4.68;;
36391;SDS011;22639;42.690;23.356;2023-04-01T07:46:56;7.88;;;4.20;;
36391;SDS011;22639;42.690;23.356;2023-04-01T07:49:35;7.88;;;3.78;;
36391;SDS011;22639;42.690;23.356;2023-04-01T07:52:06;3.92;;;3.38;;
36391;SDS011;22639;42.690;23.356;2023-04-01T07:54:41;7.43;;;5.78;;
36391;SDS011;22639;42.690;23.356;2023-04-01T07:57:19;5.68;;;3.97;;
36391;SDS011;22639;42.690;23.356;2023-04-01T08:00:02;5.10;;;3.55;;
36391;SDS011;22639;42.690;23.356;2023-04-01T08:15:24;4.07;;;3.67;;
36391;SDS011;22639;42.690;23.356;2023-04-01T08:20:54;3.40;;;3.10;;
36391;SDS011;22639;42.690;23.356;2023-04-01T08:23:22;3.20;;;2.90;;
36391;SDS011;22639;42.690;23.356;2023-04-01T08:28:44;3.55;;;3.08;;
36391;SDS011;22639;42.690;23.356;2023-04-01T08:31:16;4.53;;;3.45;;
36391;SDS011;22639;42.690;23.356;2023-04-01T08:33:43;6.80;;;3.65;;
36391;SDS011;22639;42.690;23.356;2023-04-01T08:36:10;6.03;;;3.90;;
36391;SDS011;22639;42.690;23.356;2023-04-01T08:38:41;8.35;;;4.15;;
36391;SDS011;22639;42.690;23.356;2023-04-01T08:46:15;7.05;;;3.53;;
36391;SDS011;22639;42.690;23.356;2023-04-01T08:56:30;7.20;;;3.63;;
36391;SDS011;22639;42.690;23.356;2023-04-01T09:02:16;3.97;;;3.63;;
36391;SDS011;22639;42.690;23.356;2023-04-01T09:06:52;5.45;;;2.85;;
36391;SDS011;22639;42.690;23.356;2023-04-01T09:09:43;4.78;;;2.67;;
36391;SDS011;22639;42.690;23.356;2023-04-01T09:12:17;4.88;;;2.67;;
36391;SDS011;22639;42.690;23.356;2023-04-01T09:22:25;3.53;;;2.33;;
36391;SDS011;22639;42.690;23.356;2023-04-01T09:45:48;5.03;;;2.70;;
36391;SDS011;22639;42.690;23.356;2023-04-01T09:51:17;6.38;;;3.22;;
36391;SDS011;22639;42.690;23.356;2023-04-01T10:19:49;3.42;;;2.90;;
36391;SDS011;22639;42.690;23.356;2023-04-01T11:26:18;11.77;;;6.13;;
36391;SDS011;22639;42.690;23.356;2023-04-01T11:28:55;7.03;;;5.40;;
36391;SDS011;22639;42.690;23.356;2023-04-01T11:36:57;3.53;;;2.67;;
36391;SDS011;22639;42.690;23.356;2023-04-01T11:44:46;8.30;;;2.20;;
36391;SDS011;22639;42.690;23.356;2023-04-01T11:47:30;3.60;;;1.40;;
36391;SDS011;22639;42.690;23.356;2023-04-01T11:55:05;3.63;;;3.07;;
36391;SDS011;22639;42.690;23.356;2023-04-01T12:02:42;1.73;;;1.50;;
36391;SDS011;22639;42.690;23.356;2023-04-01T12:07:55;2.27;;;1.70;;
36391;SDS011;22639;42.690;23.356;2023-04-01T12:16:07;5.50;;;2.93;;
36391;SDS011;22639;42.690;23.356;2023-04-01T12:18:57;3.83;;;2.87;;
36391;SDS011;22639;42.690;23.356;2023-04-01T12:33:54;5.45;;;3.25;;
36391;SDS011;22639;42.690;23.356;2023-04-01T12:41:28;5.13;;;3.72;;
36391;SDS011;22639;42.690;23.356;2023-04-01T12:44:10;4.10;;;3.27;;
36391;SDS011;22639;42.690;23.356;2023-04-01T12:49:19;7.43;;;3.20;;
36391;SDS011;22639;42.690;23.356;2023-04-01T13:09:21;4.17;;;2.60;;
36391;SDS011;22639;42.690;23.356;2023-04-01T13:16:45;4.27;;;3.37;;
36391;SDS011;22639;42.690;23.356;2023-04-01T13:19:25;5.17;;;4.40;;
36391;SDS011;22639;42.690;23.356;2023-04-01T13:22:04;7.63;;;5.97;;
36391;SDS011;22639;42.690;23.356;2023-04-01T13:29:31;15.80;;;11.17;;
36391;SDS011;22639;42.690;23.356;2023-04-01T13:34:46;7.27;;;5.67;;
36391;SDS011;22639;42.690;23.356;2023-04-01T13:42:12;5.47;;;4.43;;
36391;SDS011;22639;42.690;23.356;2023-04-01T13:44:56;6.50;;;4.97;;
36391;SDS011;22639;42.690;23.356;2023-04-01T13:47:32;9.18;;;6.03;;
36391;SDS011;22639;42.690;23.356;2023-04-01T13:55:23;6.03;;;4.95;;
36391;SDS011;22639;42.690;23.356;2023-04-01T13:57:52;8.13;;;4.33;;
36391;SDS011;22639;42.690;23.356;2023-04-01T14:05:53;5.57;;;4.05;;
36391;SDS011;22639;42.690;23.356;2023-04-01T14:16:20;4.20;;;3.10;;
36391;SDS011;22639;42.690;23.356;2023-04-01T14:21:31;6.43;;;4.07;;
36391;SDS011;22639;42.690;23.356;2023-04-01T14:26:32;3.67;;;2.73;;
36391;SDS011;22639;42.690;23.356;2023-04-01T14:34:29;5.83;;;4.70;;
36391;SDS011;22639;42.690;23.356;2023-04-01T14:37:47;5.27;;;3.90;;
36391;SDS011;22639;42.690;23.356;2023-04-01T14:52:39;4.40;;;4.03;;
36391;SDS011;22639;42.690;23.356;2023-04-01T14:55:19;4.22;;;3.83;;
36391;SDS011;22639;42.690;23.356;2023-04-01T14:57:57;5.20;;;3.08;;
36391;SDS011;22639;42.690;23.356;2023-04-01T15:00:23;3.28;;;2.78;;
36391;SDS011;22639;42.690;23.356;2023-04-01T15:08:02;3.05;;;1.88;;
36391;SDS011;22639;42.690;23.356;2023-04-01T15:24:07;2.80;;;2.10;;
36391;SDS011;22639;42.690;23.356;2023-04-01T15:32:02;3.55;;;2.72;;
36391;SDS011;22639;42.690;23.356;2023-04-01T15:39:42;3.28;;;2.42;;
36391;SDS011;22639;42.690;23.356;2023-04-01T15:49:59;5.80;;;4.13;;
36391;SDS011;22639;42.690;23.356;2023-04-01T15:57:40;1.77;;;1.20;;
36391;SDS011;22639;42.690;23.356;2023-04-01T16:15:29;5.80;;;2.33;;
36391;SDS011;22639;42.690;23.356;2023-04-01T16:20:43;3.03;;;2.13;;
36391;SDS011;22639;42.690;23.356;2023-04-01T16:25:40;2.70;;;2.03;;
36391;SDS011;22639;42.690;23.356;2023-04-01T16:33:24;3.17;;;2.57;;
36391;SDS011;22639;42.690;23.356;2023-04-01T16:36:05;3.53;;;2.53;;
36391;SDS011;22639;42.690;23.356;2023-04-01T16:38:37;2.90;;;2.30;;
36391;SDS011;22639;42.690;23.356;2023-04-01T16:41:25;2.47;;;2.13;;
36391;SDS011;22639;42.690;23.356;2023-04-01T16:44:13;7.93;;;2.33;;
36391;SDS011;22639;42.690;23.356;2023-04-01T16:49:16;1.77;;;1.57;;
36391;SDS011;22639;42.690;23.356;2023-04-01T16:54:30;2.53;;;1.30;;
36391;SDS011;22639;42.690;23.356;2023-04-01T16:57:02;2.23;;;1.73;;
36391;SDS011;22639;42.690;23.356;2023-04-01T16:59:33;3.10;;;2.00;;
36391;SDS011;22639;42.690;23.356;2023-04-01T17:04:44;1.37;;;1.00;;
36391;SDS011;22639;42.690;23.356;2023-04-01T17:30:50;1.47;;;1.30;;
36391;SDS011;22639;42.690;23.356;2023-04-01T17:32:46;0.87;;;0.83;;
36391;SDS011;22639;42.690;23.356;2023-04-01T17:35:50;2.60;;;2.30;;
36391;SDS011;22639;42.690;23.356;2023-04-01T17:45:53;3.40;;;2.10;;
36391;SDS011;22639;42.690;23.356;2023-04-01T17:50:53;1.87;;;1.50;;
36391;SDS011;22639;42.690;23.356;2023-04-01T17:53:24;2.77;;;1.73;;
36391;SDS011;22639;42.690;23.356;2023-04-01T18:03:54;3.63;;;2.77;;
36391;SDS011;22639;42.690;23.356;2023-04-01T18:16:29;3.47;;;2.07;;
36391;SDS011;22639;42.690;23.356;2023-04-01T18:19:02;1.57;;;1.40;;
36391;SDS011;22639;42.690;23.356;2023-04-01T18:21:45;2.13;;;1.93;;
36391;SDS011;22639;42.690;23.356;2023-04-01T18:26:50;2.87;;;2.07;;
36391;SDS011;22639;42.690;23.356;2023-04-01T18:29:39;2.57;;;2.17;;
36391;SDS011;22639;42.690;23.356;2023-04-01T18:32:12;2.40;;;2.20;;
36391;SDS011;22639;42.690;23.356;2023-04-01T18:35:00;2.90;;;2.43;;
36391;SDS011;22639;42.690;23.356;2023-04-01T18:39:57;2.03;;;1.83;;
36391;SDS011;22639;42.690;23.356;2023-04-01T18:42:33;2.90;;;2.13;;
36391;SDS011;22639;42.690;23.356;2023-04-01T18:47:45;2.00;;;1.80;;
36391;SDS011;22639;42.690;23.356;2023-04-01T18:53:08;1.73;;;1.53;;
36391;SDS011;22639;42.690;23.356;2023-04-01T18:55:37;2.13;;;1.80;;
36391;SDS011;22639;42.690;23.356;2023-04-01T18:58:07;6.57;;;2.60;;
36391;SDS011;22639;42.690;23.356;2023-04-01T19:00:40;2.47;;;2.13;;
36391;SDS011;22639;42.690;23.356;2023-04-01T19:05:47;4.10;;;2.00;;
36391;SDS011;22639;42.690;23.356;2023-04-01T19:10:51;2.67;;;2.30;;
36391;SDS011;22639;42.690;23.356;2023-04-01T19:13:21;2.47;;;2.00;;
36391;SDS011;22639;42.690;23.356;2023-04-01T19:21:21;2.93;;;1.70;;
36391;SDS011;22639;42.690;23.356;2023-04-01T19:37:05;2.33;;;2.13;;
36391;SDS011;22639;42.690;23.356;2023-04-01T19:47:07;1.73;;;1.50;;
36391;SDS011;22639;42.690;23.356;2023-04-01T20:04:34;1.53;;;1.43;;
36391;SDS011;22639;42.690;23.356;2023-04-01T20:15:02;1.60;;;1.50;;
36391;SDS011;22639;42.690;23.356;2023-04-01T20:17:32;0.87;;;0.83;;
36391;SDS011;22639;42.690;23.356;2023-04-01T20:19:59;2.07;;;1.70;;
36391;SDS011;22639;42.690;23.356;2023-04-01T20:25:13;2.20;;;1.70;;
36391;SDS011;22639;42.690;23.356;2023-04-01T20:27:50;2.87;;;1.80;;
36391;SDS011;22639;42.690;23.356;2023-04-01T20:33:10;2.27;;;2.07;;
36391;SDS011;22639;42.690;23.356;2023-04-01T20:40:51;1.63;;;1.50;;
36391;SDS011;22639;42.690;23.356;2023-04-01T20:43:27;1.37;;;1.10;;
36391;SDS011;22639;42.690;23.356;2023-04-01T20:46:04;2.30;;;1.87;;
36391;SDS011;22639;42.690;23.356;2023-04-01T20:51:16;1.30;;;1.03;;
36391;SDS011;22639;42.690;23.356;2023-04-01T20:56:49;3.73;;;2.13;;
36391;SDS011;22639;42.690;23.356;2023-04-01T21:04:27;2.03;;;1.47;;
36391;SDS011;22639;42.690;23.356;2023-04-01T21:07:15;1.33;;;1.23;;
36391;SDS011;22639;42.690;23.356;2023-04-01T21:25:31;1.97;;;1.73;;
36391;SDS011;22639;42.690;23.356;2023-04-01T21:38:28;2.10;;;1.90;;
36391;SDS011;22639;42.690;23.356;2023-04-01T21:43:35;0.80;;;0.80;;
36391;SDS011;22639;42.690;23.356;2023-04-01T21:54:22;1.13;;;0.80;;
36391;SDS011;22639;42.690;23.356;2023-04-01T22:07:12;1.90;;;1.00;;
36391;SDS011;22639;42.690;23.356;2023-04-01T22:09:45;1.20;;;1.10;;
36391;SDS011;22639;42.690;23.356;2023-04-01T22:15:08;1.20;;;1.10;;
36391;SDS011;22639;42.690;23.356;2023-04-01T22:17:38;0.73;;;0.73;;
36391;SDS011;22639;42.690;23.356;2023-04-01T22:20:20;1.30;;;1.20;;
36391;SDS011;22639;42.690;23.356;2023-04-01T22:28:00;1.70;;;1.30;;
36391;SDS011;22639;42.690;23.356;2023-04-01T22:31:02;2.00;;;1.17;;
36391;SDS011;22639;42.690;23.356;2023-04-01T22:40:56;1.13;;;0.97;;
36391;SDS011;22639;42.690;23.356;2023-04-01T22:51:41;2.33;;;1.60;;
36391;SDS011;22639;42.690;23.356;2023-04-01T22:56:24;0.80;;;0.67;;
36391;SDS011;22639;42.690;23.356;2023-04-01T22:58:54;1.70;;;1.23;;
36391;SDS011;22639;42.690;23.356;2023-04-01T23:01:25;0.63;;;0.50;;
36391;SDS011;22639;42.690;23.356;2023-04-01T23:03:54;0.50;;;0.50;;
36391;SDS011;22639;42.690;23.356;2023-04-01T23:06:23;2.27;;;0.80;;
36391;SDS011;22639;42.690;23.356;2023-04-01T23:09:04;0.60;;;0.50;;
36391;SDS011;22639;42.690;23.356;2023-04-01T23:16:30;0.50;;;0.50;;
36391;SDS011;22639;42.690;23.356;2023-04-01T23:21:36;0.73;;;0.60;;
36391;SDS011;22639;42.690;23.356;2023-04-01T23:24:18;0.80;;;0.37;;
36391;SDS011;22639;42.690;23.356;2023-04-01T23:26:50;1.63;;;0.50;;
36391;SDS011;22639;42.690;23.356;2023-04-01T23:29:17;0.83;;;0.77;;
36391;SDS011;22639;42.690;23.356;2023-04-01T23:31:47;1.00;;;0.57;;
36391;SDS011;22639;42.690;23.356;2023-04-01T23:36:39;1.23;;;0.60;;
36391;SDS011;22639;42.690;23.356;2023-04-01T23:39:08;1.50;;;0.40;;
36391;SDS011;22639;42.690;23.356;2023-04-01T23:41:35;0.50;;;0.50;;
36391;SDS011;22639;42.690;23.356;2023-04-01T23:44:02;0.97;;;0.70;;
36391;SDS011;22639;42.690;23.356;2023-04-01T23:46:29;0.40;;;0.40;;
36391;SDS011;22639;42.690;23.356;2023-04-01T23:48:55;0.37;;;0.30;;
36391;SDS011;22639;42.690;23.356;2023-04-01T23:53:56;0.37;;;0.37;;
36391;SDS011;22639;42.690;23.356;2023-04-01T23:56:21;0.40;;;0.40;;
36391;SDS011;22639;42.690;23.356;2023-04-01T23:58:47;5.97;;;0.90;;
